Observations for Trim Patrick St
| Time | AQI | Temp °C | Hum % | Pres Pa | CO μg/m³ | H₂S μg/m³ | NO μg/m³ | NO₂ μg/m³ | O₃ μg/m³ | SO₂ μg/m³ | PM1 μg/m³ | PM2.5 μg/m³ | PM10 μg/m³ |
|---|---|---|---|---|---|---|---|---|---|---|---|---|---|
| Sunday 2 August 2026 | |||||||||||||
| 20:04 | 3 | 18.8 | 61 | 74,390 | 0.03 | 12.35 | 1.11 | 41.81 | 29.53 | 2.08 | 4.57 | 7.92 | 8.71 |
| 20:03 | 3 | 18.8 | 61 | 74,365 | 0.02 | 11.54 | 1.09 | 38.96 | 46.49 | 2.05 | 4.57 | 8.65 | 9.52 |
| 20:02 | 3 | 18.8 | 61 | 74,351 | 0 | 9.2 | 1.12 | 33.95 | 38.4 | 0.88 | 3.71 | 7.94 | 8.73 |
| 20:01 | 3 | 18.9 | 61 | 74,342 | 0 | 10.17 | 1.15 | 30.28 | 37.84 | 1.84 | 3.71 | 7.19 | 7.9 |
| 20:00 | 3 | 18.9 | 61 | 74,334 | 0 | 10.54 | 1.21 | 38.2 | 34.62 | 2.22 | 2.86 | 7.93 | 8.72 |
| 19:59 | 3 | 18.9 | 61 | 74,324 | 0 | 10.93 | 1.22 | 38.57 | 41.76 | 1.86 | 3.71 | 8.67 | 9.53 |
| 19:58 | 3 | 18.9 | 61 | 74,318 | 0 | 7.83 | 1.2 | 28.82 | 38.01 | 1.62 | 4.57 | 9.43 | 10.38 |
| 19:56 | 3 | 19 | 61 | 74,326 | 0 | 6.91 | 1.2 | 24.11 | 42.44 | 1.61 | 3.71 | 8.71 | 9.58 |
| 19:55 | 3 | 19 | 61 | 74,346 | 0.02 | 8.88 | 1.21 | 32.07 | 38.52 | 1.17 | 2.86 | 7.21 | 7.93 |
| 19:54 | 3 | 19 | 61 | 74,355 | 0.01 | 13.01 | 1.2 | 39.24 | 49.39 | 2.25 | 4.57 | 8.69 | 9.56 |
| 19:53 | 3 | 19.1 | 61 | 74,359 | 0 | 14.61 | 1.22 | 50.43 | 27 | 2.75 | 2.86 | 7.19 | 7.91 |
| 19:51 | 3 | 19.1 | 60 | 74,324 | 0 | 11.35 | 1.2 | 40.64 | 44.6 | 2.17 | 3.71 | 7.97 | 8.77 |
| 19:50 | 3 | 19.1 | 61 | 74,324 | 0 | 12.66 | 1.19 | 41.72 | 27.67 | 2.65 | 3.71 | 7.97 | 8.76 |
| 19:49 | 3 | 19.2 | 61 | 74,312 | 0 | 12.43 | 1.08 | 42.75 | 34.73 | 2.52 | 4.57 | 8.7 | 9.57 |
| 19:48 | 3 | 19.2 | 61 | 74,294 | 0 | 12.59 | 1.19 | 37.75 | 39.67 | 2.74 | 3.71 | 7.95 | 8.75 |
| 19:46 | 3 | 19.2 | 61 | 74,271 | 0.02 | 15.05 | 1.2 | 50.83 | 28.98 | 2.83 | 2.86 | 7.21 | 7.93 |
| 19:45 | 3 | 19.2 | 61 | 74,245 | 0 | 15.21 | 1.21 | 50.83 | 39 | 3.4 | 2.86 | 7.95 | 8.74 |
| 19:43 | 3 | 19.2 | 60 | 74,194 | 0.01 | 13.69 | 1.21 | 43.5 | 33.38 | 3.03 | 4.57 | 7.97 | 8.77 |
| 19:42 | 3 | 19.2 | 60 | 74,170 | 0 | 12.93 | 1.18 | 42.43 | 28.04 | 3.19 | 3.71 | 7.97 | 8.77 |
| 19:41 | 3 | 19.2 | 60 | 74,139 | 0.01 | 13.93 | 1.19 | 45.75 | 39.21 | 2.71 | 3.71 | 7.98 | 8.78 |